Time;durP1;ratioP1;P1;durP2;ratioP2;P2;SDS_P1;SDS_P2;PMS_P1;PMS_P2;Temp;Humidity;BMP_temperature;BMP_pressure;BME280_temperature;BME280_humidity;BME280_pressure;Samples;Min_cycle;Max_cycle;Signal;HPM_P1;HPM_P2
2023/05/27 05:00:36;;;;;;;11.07;4.57;;;16.60;97.20;;;;;;1727989;28;20215;-80
2023/05/27 05:01:29;;;;;;;8.25;4.35;;;16.60;97.20;;;;;;1728935;28;20228;-79
2023/05/27 05:02:21;;;;;;;13.82;4.80;;;16.60;97.20;;;;;;1729344;28;20204;-80
2023/05/27 05:03:20;;;;;;;11.85;4.68;;;16.60;97.20;;;;;;1729429;28;20687;-80
2023/05/27 05:04:12;;;;;;;9.88;4.35;;;16.60;97.20;;;;;;1729001;28;20323;-80
2023/05/27 05:05:04;;;;;;;9.63;4.25;;;16.60;97.20;;;;;;1729237;28;20224;-80
2023/05/27 05:05:56;;;;;;;6.93;3.55;;;16.60;97.20;;;;;;1728855;28;20200;-80
2023/05/27 05:06:47;;;;;;;10.27;4.70;;;16.60;97.20;;;;;;1729197;28;20209;-80
2023/05/27 05:07:40;;;;;;;12.30;5.10;;;16.70;97.20;;;;;;1728959;28;20204;-80
2023/05/27 05:08:31;;;;;;;8.40;4.15;;;16.70;97.20;;;;;;1729226;28;20600;-80
2023/05/27 05:09:23;;;;;;;13.90;5.07;;;16.70;97.20;;;;;;1728954;28;20279;-80
2023/05/27 05:10:14;;;;;;;8.85;4.38;;;16.70;97.20;;;;;;1731734;28;20442;-79
2023/05/27 05:11:05;;;;;;;10.13;5.27;;;16.70;97.20;;;;;;1735931;28;20197;-80
2023/05/27 05:11:56;;;;;;;9.98;5.03;;;16.70;97.20;;;;;;1730795;28;20208;-80
2023/05/27 05:12:48;;;;;;;10.90;4.90;;;16.80;97.20;;;;;;1729148;28;20236;-80
2023/05/27 05:13:39;;;;;;;13.50;4.72;;;16.80;97.20;;;;;;1729664;28;20205;-80
2023/05/27 05:14:30;;;;;;;9.60;4.10;;;16.80;97.20;;;;;;1729402;28;20235;-80
2023/05/27 05:15:22;;;;;;;10.25;4.57;;;16.80;97.20;;;;;;1728940;28;20369;-80
2023/05/27 05:16:14;;;;;;;9.90;4.90;;;16.80;97.20;;;;;;1729647;28;20690;-80
2023/05/27 05:17:05;;;;;;;9.50;4.40;;;16.80;97.20;;;;;;1729075;28;20208;-80
2023/05/27 05:17:57;;;;;;;13.30;5.00;;;16.80;97.20;;;;;;1729359;28;20193;-80
2023/05/27 05:18:47;;;;;;;12.00;4.85;;;16.90;97.20;;;;;;1729638;28;20216;-80
2023/05/27 05:19:39;;;;;;;12.33;5.10;;;16.90;97.20;;;;;;1722161;28;20233;-80
2023/05/27 05:20:30;;;;;;;10.32;4.72;;;16.90;97.20;;;;;;1722463;28;20452;-80
2023/05/27 05:21:22;;;;;;;8.90;4.60;;;16.90;97.20;;;;;;1731527;28;20196;-79
2023/05/27 05:22:13;;;;;;;9.13;4.13;;;16.90;97.20;;;;;;1734880;28;20431;-79
2023/05/27 05:23:06;;;;;;;8.32;4.10;;;16.90;97.20;;;;;;1734374;28;20264;-80
2023/05/27 05:23:57;;;;;;;16.50;5.10;;;17.00;97.20;;;;;;1733204;28;20246;-80
2023/05/27 05:24:49;;;;;;;14.00;5.70;;;17.00;97.20;;;;;;1729904;28;20207;-80
2023/05/27 05:25:40;;;;;;;7.68;4.30;;;17.00;97.20;;;;;;1730040;28;20212;-80
2023/05/27 05:26:33;;;;;;;12.15;4.28;;;17.00;97.20;;;;;;1729837;28;20200;-80
2023/05/27 05:27:24;;;;;;;10.20;4.68;;;17.00;97.20;;;;;;1730460;28;20200;-80
2023/05/27 05:28:16;;;;;;;13.55;5.18;;;17.00;97.20;;;;;;1730159;28;20256;-80
2023/05/27 05:29:07;;;;;;;11.20;4.80;;;17.10;97.20;;;;;;1729958;28;20294;-80
2023/05/27 05:29:59;;;;;;;14.40;5.33;;;17.10;97.20;;;;;;1730235;28;20188;-80
2023/05/27 05:30:51;;;;;;;13.38;5.43;;;17.10;97.20;;;;;;1729227;28;20704;-80
2023/05/27 05:31:44;;;;;;;7.50;4.25;;;17.10;97.20;;;;;;1729849;28;20204;-80
2023/05/27 05:32:35;;;;;;;9.32;5.10;;;17.10;97.20;;;;;;1729228;28;20294;-80
2023/05/27 05:33:27;;;;;;;13.27;4.90;;;17.10;97.20;;;;;;1730008;28;20197;-80
2023/05/27 05:34:18;;;;;;;8.20;4.82;;;17.10;97.20;;;;;;1729785;28;20692;-80
2023/05/27 05:35:09;;;;;;;9.27;4.27;;;17.20;97.20;;;;;;1729580;28;20656;-80
2023/05/27 05:36:01;;;;;;;10.13;5.05;;;17.20;97.20;;;;;;1729518;28;20209;-80
2023/05/27 05:36:53;;;;;;;8.73;4.25;;;17.20;97.20;;;;;;1729742;28;20200;-80
2023/05/27 05:37:43;;;;;;;9.35;4.50;;;17.20;97.20;;;;;;1730347;28;20239;-80
2023/05/27 05:38:35;;;;;;;11.37;4.60;;;17.20;97.20;;;;;;1730000;28;20200;-79
2023/05/27 05:39:26;;;;;;;8.23;4.38;;;17.20;97.20;;;;;;1729218;28;20201;-80
2023/05/27 05:40:18;;;;;;;11.90;4.53;;;17.30;97.20;;;;;;1730149;28;20205;-80
2023/05/27 05:41:08;;;;;;;6.13;4.22;;;17.30;97.20;;;;;;1729711;28;20209;-80
2023/05/27 05:42:00;;;;;;;10.23;4.80;;;17.30;97.20;;;;;;1729659;28;20231;-80
2023/05/27 05:42:51;;;;;;;9.57;4.53;;;17.30;97.20;;;;;;1728989;28;20553;-80
2023/05/27 05:43:42;;;;;;;9.63;4.40;;;17.40;97.20;;;;;;1731333;28;20308;-80
2023/05/27 05:44:34;;;;;;;9.55;4.82;;;17.40;97.20;;;;;;1731004;28;20208;-80
2023/05/27 05:45:26;;;;;;;12.32;4.35;;;17.40;97.20;;;;;;1728573;28;20212;-80
2023/05/27 05:46:18;;;;;;;10.80;4.95;;;17.40;97.20;;;;;;1728454;28;20208;-80
2023/05/27 05:47:09;;;;;;;11.32;4.68;;;17.50;97.20;;;;;;1728917;28;20333;-80
2023/05/27 05:48:00;;;;;;;10.18;4.20;;;17.50;97.20;;;;;;1728648;28;20204;-80
2023/05/27 05:48:53;;;;;;;11.20;5.20;;;17.50;97.20;;;;;;1728643;28;20200;-80
2023/05/27 05:49:43;;;;;;;9.20;4.32;;;17.50;97.20;;;;;;1728721;28;20215;-80
2023/05/27 05:50:35;;;;;;;10.40;4.87;;;17.50;97.20;;;;;;1728650;28;20224;-80
2023/05/27 05:51:26;;;;;;;8.68;4.90;;;17.50;97.20;;;;;;1728687;28;20207;-80
2023/05/27 05:52:18;;;;;;;14.37;5.27;;;17.50;97.20;;;;;;1728763;28;20239;-80
2023/05/27 05:53:09;;;;;;;10.60;4.90;;;17.50;97.20;;;;;;1728531;28;20201;-80
2023/05/27 05:54:01;;;;;;;7.38;4.53;;;17.50;97.20;;;;;;1728526;28;20216;-80
2023/05/27 05:54:52;;;;;;;7.57;3.95;;;17.60;97.20;;;;;;1728765;28;20200;-80
2023/05/27 05:55:44;;;;;;;12.73;5.27;;;17.60;97.20;;;;;;1728540;28;20196;-79
2023/05/27 05:56:34;;;;;;;8.45;4.60;;;17.60;97.20;;;;;;1729242;28;20580;-79
2023/05/27 05:57:26;;;;;;;8.57;4.10;;;17.60;97.20;;;;;;1728920;28;20557;-80
2023/05/27 05:58:17;;;;;;;12.63;4.75;;;17.60;97.20;;;;;;1729155;28;20208;-79
2023/05/27 05:59:09;;;;;;;9.75;4.45;;;17.60;97.20;;;;;;1729033;28;20202;-79
2023/05/27 06:00:00;;;;;;;9.93;4.60;;;17.70;97.20;;;;;;1729046;28;20205;-80
2023/05/27 06:00:52;;;;;;;9.13;4.30;;;17.70;97.20;;;;;;1729077;28;20299;-80
2023/05/27 06:01:44;;;;;;;8.60;4.13;;;17.70;97.20;;;;;;1728953;28;20204;-80
2023/05/27 06:02:35;;;;;;;10.23;4.90;;;17.80;97.20;;;;;;1731300;28;20220;-80
2023/05/27 06:03:26;;;;;;;9.45;4.47;;;17.80;97.20;;;;;;1735176;28;20200;-80
2023/05/27 06:04:18;;;;;;;10.33;4.80;;;17.90;97.20;;;;;;1729816;28;20309;-80
2023/05/27 06:05:09;;;;;;;8.52;4.05;;;17.90;97.20;;;;;;1729698;28;20558;-80
2023/05/27 06:06:02;;;;;;;8.55;4.80;;;17.90;97.20;;;;;;1729805;28;20255;-80
2023/05/27 06:06:52;;;;;;;9.95;4.78;;;17.90;97.20;;;;;;1730229;28;20679;-80
2023/05/27 06:07:45;;;;;;;10.80;4.70;;;18.00;97.20;;;;;;1730076;28;20267;-80
2023/05/27 06:08:35;;;;;;;9.70;4.80;;;18.00;97.20;;;;;;1729343;28;20204;-80
2023/05/27 06:09:27;;;;;;;8.87;4.60;;;18.00;97.20;;;;;;1730193;28;20287;-79
2023/05/27 06:10:19;;;;;;;9.23;4.30;;;18.00;97.20;;;;;;1728829;28;20199;-80
2023/05/27 06:11:10;;;;;;;10.60;5.38;;;18.00;97.20;;;;;;1729655;28;20203;-79
2023/05/27 06:12:01;;;;;;;9.18;5.15;;;18.00;97.20;;;;;;1723086;28;20204;-79
2023/05/27 06:12:53;;;;;;;8.33;4.77;;;18.10;97.20;;;;;;1721966;28;20203;-80
2023/05/27 06:13:44;;;;;;;8.55;4.75;;;18.10;97.20;;;;;;1727877;28;20211;-79
2023/05/27 06:14:35;;;;;;;10.83;4.70;;;18.10;97.20;;;;;;1729760;28;20210;-79
2023/05/27 06:15:26;;;;;;;9.43;5.63;;;18.10;97.20;;;;;;1729130;28;20213;-79
2023/05/27 06:16:18;;;;;;;8.05;4.53;;;18.20;97.20;;;;;;1729003;28;20219;-80
2023/05/27 06:17:10;;;;;;;10.32;5.43;;;18.20;97.20;;;;;;1729045;28;20204;-80
2023/05/27 06:18:02;;;;;;;13.80;4.78;;;18.20;97.20;;;;;;1728974;28;20228;-79
2023/05/27 06:18:53;;;;;;;10.00;4.70;;;18.30;97.20;;;;;;1729649;28;20668;-79
2023/05/27 06:19:44;;;;;;;10.17;4.77;;;18.30;97.20;;;;;;1729590;28;20644;-80
2023/05/27 06:20:35;;;;;;;7.68;4.50;;;18.30;97.20;;;;;;1728918;28;20236;-80
2023/05/27 06:21:27;;;;;;;11.23;4.87;;;18.30;97.20;;;;;;1728718;28;20211;-80
2023/05/27 06:22:17;;;;;;;11.02;4.50;;;18.40;97.20;;;;;;1729103;28;20288;-80
2023/05/27 06:23:09;;;;;;;14.90;5.83;;;18.40;97.20;;;;;;1728964;28;20287;-80
2023/05/27 06:24:00;;;;;;;9.30;4.60;;;18.40;97.20;;;;;;1728931;28;20204;-80
2023/05/27 06:24:52;;;;;;;12.87;4.60;;;18.40;97.20;;;;;;1729602;28;20196;-80
2023/05/27 06:25:42;;;;;;;9.35;4.95;;;18.50;97.20;;;;;;1728965;28;20215;-80
2023/05/27 06:26:34;;;;;;;11.10;5.27;;;18.50;97.20;;;;;;1729144;28;20196;-80
2023/05/27 06:27:25;;;;;;;11.82;5.15;;;18.50;97.20;;;;;;1728874;28;20205;-80
2023/05/27 06:28:16;;;;;;;11.13;5.00;;;18.50;97.20;;;;;;1728898;28;20204;-80
2023/05/27 06:29:07;;;;;;;10.13;5.00;;;18.50;97.20;;;;;;1729508;28;20223;-80
2023/05/27 06:29:59;;;;;;;11.43;5.37;;;18.50;97.20;;;;;;1729260;28;20204;-79
2023/05/27 06:30:50;;;;;;;8.48;4.95;;;18.50;97.20;;;;;;1728822;28;20286;-80
2023/05/27 06:31:42;;;;;;;9.70;4.30;;;18.60;97.20;;;;;;1729117;28;20251;-80
2023/05/27 06:32:34;;;;;;;10.18;5.40;;;18.60;97.20;;;;;;1728784;28;20235;-77
2023/05/27 06:33:26;;;;;;;9.18;4.68;;;18.60;97.20;;;;;;1728567;28;20204;-78
2023/05/27 06:34:16;;;;;;;9.88;5.15;;;18.60;97.20;;;;;;1728291;28;20584;-78
2023/05/27 06:35:08;;;;;;;8.60;4.33;;;18.70;97.20;;;;;;1728240;28;20279;-78
2023/05/27 06:35:59;;;;;;;9.80;4.68;;;18.70;97.20;;;;;;1728461;28;20211;-78
2023/05/27 06:36:51;;;;;;;7.07;4.70;;;18.70;97.20;;;;;;1728374;28;20207;-79
2023/05/27 06:37:42;;;;;;;8.90;4.75;;;18.70;97.20;;;;;;1728735;28;20201;-78
2023/05/27 06:38:33;;;;;;;9.07;4.40;;;18.70;97.20;;;;;;1728252;28;20208;-78
2023/05/27 06:39:24;;;;;;;9.35;4.28;;;18.70;97.20;;;;;;1728870;28;20216;-77
2023/05/27 06:40:16;;;;;;;9.73;4.50;;;18.70;97.20;;;;;;1728508;28;20211;-78
2023/05/27 06:41:07;;;;;;;12.95;5.40;;;18.70;97.20;;;;;;1728439;28;20204;-78
2023/05/27 06:41:59;;;;;;;11.80;4.90;;;18.80;97.20;;;;;;1728554;28;20203;-78
2023/05/27 06:42:50;;;;;;;9.07;4.43;;;18.80;97.20;;;;;;1728077;28;20215;-78
2023/05/27 06:43:43;;;;;;;9.33;4.40;;;18.80;97.20;;;;;;1727966;28;20220;-79
2023/05/27 06:44:33;;;;;;;8.85;4.38;;;18.80;97.20;;;;;;1728603;28;20451;-78
2023/05/27 06:45:24;;;;;;;8.60;4.73;;;18.90;97.20;;;;;;1728447;28;20205;-79
2023/05/27 06:46:16;;;;;;;8.30;4.60;;;18.90;97.20;;;;;;1728656;28;20569;-78
2023/05/27 06:47:06;;;;;;;8.13;4.80;;;18.90;97.20;;;;;;1728330;28;20212;-78
2023/05/27 06:48:00;;;;;;;11.23;4.67;;;19.00;97.20;;;;;;1728338;28;20231;-79
2023/05/27 06:48:51;;;;;;;10.75;4.70;;;19.00;97.20;;;;;;1728542;28;20208;-79
2023/05/27 06:49:43;;;;;;;10.17;4.43;;;19.10;97.20;;;;;;1728298;28;20665;-78
2023/05/27 06:50:34;;;;;;;10.98;5.10;;;19.10;97.20;;;;;;1729128;28;20227;-78
2023/05/27 06:51:27;;;;;;;14.30;5.15;;;19.10;97.20;;;;;;1729188;28;20206;-79
2023/05/27 06:52:17;;;;;;;11.20;5.00;;;19.20;97.20;;;;;;1728587;28;20207;-79
2023/05/27 06:53:10;;;;;;;9.10;4.80;;;19.20;97.20;;;;;;1729177;28;20200;-80
2023/05/27 06:54:01;;;;;;;8.38;4.63;;;19.20;97.20;;;;;;1728981;28;20248;-81
2023/05/27 06:54:52;;;;;;;9.80;5.00;;;19.20;97.20;;;;;;1729253;28;20283;-81
2023/05/27 06:55:43;;;;;;;9.30;4.68;;;19.20;97.20;;;;;;1729106;28;20201;-81
2023/05/27 06:56:35;;;;;;;9.60;5.05;;;19.20;97.20;;;;;;1728783;28;20473;-81
2023/05/27 06:57:26;;;;;;;8.95;5.30;;;19.20;97.20;;;;;;1729005;28;20687;-80
2023/05/27 06:58:18;;;;;;;9.23;4.20;;;19.30;97.20;;;;;;1729347;28;20726;-81
2023/05/27 06:59:09;;;;;;;8.52;4.90;;;19.30;97.20;;;;;;1729214;28;20466;-81
2023/05/27 07:00:00;;;;;;;12.60;5.30;;;19.30;97.20;;;;;;1732685;28;20200;-81
2023/05/27 07:00:51;;;;;;;9.85;5.28;;;19.30;97.20;;;;;;1733461;28;20235;-81
2023/05/27 07:01:43;;;;;;;9.00;5.20;;;19.30;97.20;;;;;;1729994;28;20204;-81
2023/05/27 07:02:34;;;;;;;12.38;5.38;;;19.30;97.20;;;;;;1729570;28;20204;-81
2023/05/27 07:03:27;;;;;;;9.30;4.53;;;19.40;97.20;;;;;;1730639;28;20200;-80
2023/05/27 07:04:18;;;;;;;7.95;4.80;;;19.40;97.20;;;;;;1729564;28;20443;-81
2023/05/27 07:05:10;;;;;;;7.47;4.53;;;19.40;97.20;;;;;;1729785;28;20192;-80
2023/05/27 07:06:01;;;;;;;8.10;4.85;;;19.40;97.20;;;;;;1730567;28;20287;-80
2023/05/27 07:06:53;;;;;;;10.10;5.50;;;19.50;97.20;;;;;;1729653;28;20223;-81
2023/05/27 07:07:43;;;;;;;8.55;4.80;;;19.50;97.20;;;;;;1729403;28;20648;-81
2023/05/27 07:08:35;;;;;;;15.37;5.53;;;19.50;97.20;;;;;;1730519;28;20582;-80
2023/05/27 07:09:26;;;;;;;10.63;4.82;;;19.60;97.20;;;;;;1729173;28;20590;-81
2023/05/27 07:10:18;;;;;;;8.27;3.90;;;19.60;97.20;;;;;;1729534;28;20200;-81
2023/05/27 07:11:08;;;;;;;11.88;5.38;;;19.60;97.20;;;;;;1729233;28;20660;-81
2023/05/27 07:12:01;;;;;;;8.93;4.50;;;19.60;97.20;;;;;;1729971;28;20563;-81
2023/05/27 07:12:52;;;;;;;8.85;4.85;;;19.60;97.20;;;;;;1728899;28;20586;-81
2023/05/27 07:13:44;;;;;;;11.97;4.70;;;19.70;97.20;;;;;;1728601;28;20627;-81
2023/05/27 07:14:35;;;;;;;15.40;5.50;;;19.70;97.20;;;;;;1733995;28;20838;-81
2023/05/27 07:15:28;;;;;;;11.95;5.95;;;19.70;97.20;;;;;;1729637;28;20201;-81
2023/05/27 07:16:19;;;;;;;10.02;5.00;;;19.80;97.20;;;;;;1728557;28;20231;-81
2023/05/27 07:17:10;;;;;;;9.25;5.07;;;19.80;97.20;;;;;;1728127;28;20251;-81
2023/05/27 07:18:02;;;;;;;10.80;5.20;;;19.80;97.20;;;;;;1728673;28;20208;-81
2023/05/27 07:18:54;;;;;;;11.73;5.43;;;19.80;97.20;;;;;;1728564;28;20211;-81
2023/05/27 07:19:46;;;;;;;11.38;4.70;;;19.80;97.20;;;;;;1728381;28;20270;-81
2023/05/27 07:20:38;;;;;;;14.43;5.75;;;19.90;97.20;;;;;;1728345;28;20715;-81
2023/05/27 07:21:30;;;;;;;9.88;5.15;;;19.90;97.20;;;;;;1728673;28;20204;-81
2023/05/27 07:22:21;;;;;;;10.27;4.78;;;19.90;97.20;;;;;;1728710;28;20573;-81
2023/05/27 07:23:13;;;;;;;9.27;4.95;;;19.90;97.20;;;;;;1728235;28;20570;-80
2023/05/27 07:24:04;;;;;;;13.10;5.03;;;20.00;97.20;;;;;;1727307;28;20212;-81
2023/05/27 07:24:55;;;;;;;11.50;5.43;;;20.00;97.20;;;;;;1728162;28;20200;-81
2023/05/27 07:25:46;;;;;;;9.35;4.90;;;20.00;97.20;;;;;;1728335;28;20443;-81
2023/05/27 07:26:38;;;;;;;13.00;6.20;;;20.10;97.20;;;;;;1728511;28;20204;-80
2023/05/27 07:27:29;;;;;;;10.80;4.85;;;20.10;97.20;;;;;;1728151;28;20212;-81
2023/05/27 07:28:20;;;;;;;11.87;5.43;;;20.20;97.20;;;;;;1728417;28;20283;-80
2023/05/27 07:29:11;;;;;;;10.13;4.57;;;20.20;97.20;;;;;;1728206;28;20200;-80
2023/05/27 07:30:03;;;;;;;10.83;5.13;;;20.30;97.20;;;;;;1728299;28;20207;-81
2023/05/27 07:30:54;;;;;;;13.07;6.00;;;20.30;97.20;;;;;;1727862;28;20764;-81
2023/05/27 07:31:46;;;;;;;12.70;5.43;;;20.30;97.20;;;;;;1728168;28;20210;-81
2023/05/27 07:32:37;;;;;;;14.27;6.05;;;20.30;97.20;;;;;;1727978;28;20216;-81
2023/05/27 07:33:29;;;;;;;10.23;5.97;;;20.40;97.20;;;;;;1728190;28;20192;-81
2023/05/27 07:34:21;;;;;;;9.00;4.93;;;20.40;97.20;;;;;;1728369;28;20939;-81
2023/05/27 07:35:13;;;;;;;12.55;5.57;;;20.40;97.20;;;;;;1728156;28;20254;-81
2023/05/27 07:36:04;;;;;;;6.82;4.82;;;20.40;97.20;;;;;;1728238;28;20192;-81
2023/05/27 07:36:56;;;;;;;8.88;4.80;;;20.50;97.20;;;;;;1728507;28;20200;-81
2023/05/27 07:37:47;;;;;;;9.98;4.75;;;20.50;97.20;;;;;;1728317;28;20660;-81
2023/05/27 07:38:39;;;;;;;10.70;5.00;;;20.60;97.20;;;;;;1728235;28;20658;-81
2023/05/27 07:39:29;;;;;;;7.40;4.90;;;20.60;97.20;;;;;;1727839;28;20208;-81
2023/05/27 07:40:21;;;;;;;9.50;4.60;;;20.60;97.20;;;;;;1728299;28;20690;-81
2023/05/27 07:41:12;;;;;;;12.00;5.28;;;20.70;97.20;;;;;;1728583;28;20224;-80
2023/05/27 07:42:05;;;;;;;7.03;4.53;;;20.70;97.20;;;;;;1728469;28;20207;-80
2023/05/27 07:42:55;;;;;;;13.68;4.95;;;20.70;97.20;;;;;;1728216;28;20216;-81
2023/05/27 07:43:47;;;;;;;9.73;5.17;;;20.80;97.20;;;;;;1728162;28;20283;-81
2023/05/27 07:44:38;;;;;;;10.57;4.70;;;20.80;97.20;;;;;;1728287;28;20205;-80
2023/05/27 07:45:30;;;;;;;10.20;4.93;;;20.80;97.20;;;;;;1728467;28;20208;-81
2023/05/27 07:46:20;;;;;;;7.50;4.53;;;20.90;97.20;;;;;;1728813;28;20207;-80
2023/05/27 07:47:12;;;;;;;12.37;5.77;;;20.90;97.20;;;;;;1728895;28;20679;-80
2023/05/27 07:48:03;;;;;;;12.02;5.30;;;20.90;97.20;;;;;;1728312;28;20722;-81
2023/05/27 07:48:55;;;;;;;8.77;5.20;;;21.00;97.20;;;;;;1728852;28;20208;-80
2023/05/27 07:49:48;;;;;;;10.82;5.10;;;21.00;97.20;;;;;;1728945;28;20579;-80
2023/05/27 07:50:40;;;;;;;8.32;4.70;;;21.00;97.20;;;;;;1728440;28;20267;-81
2023/05/27 07:51:31;;;;;;;8.95;4.75;;;21.00;97.20;;;;;;1728685;28;20684;-81
2023/05/27 07:52:23;;;;;;;11.80;5.00;;;21.00;97.20;;;;;;1728457;28;20200;-81
2023/05/27 07:53:14;;;;;;;7.35;4.88;;;21.10;97.20;;;;;;1728747;28;20208;-81
2023/05/27 07:54:06;;;;;;;9.70;4.83;;;21.10;97.20;;;;;;1728151;28;20201;-81
2023/05/27 07:54:57;;;;;;;9.77;4.95;;;21.20;97.20;;;;;;1728731;28;20208;-81
2023/05/27 07:55:49;;;;;;;9.25;5.40;;;21.20;97.20;;;;;;1728524;28;20200;-81
2023/05/27 07:56:40;;;;;;;10.23;5.45;;;21.20;97.20;;;;;;1727964;28;20200;-78
2023/05/27 07:57:32;;;;;;;9.63;5.60;;;21.20;97.20;;;;;;1727823;28;20193;-79
2023/05/27 07:58:23;;;;;;;10.65;4.97;;;21.30;97.20;;;;;;1728827;28;20204;-78
2023/05/27 07:59:15;;;;;;;14.57;5.23;;;21.30;97.20;;;;;;1730913;28;20272;-79
2023/05/27 08:00:07;;;;;;;6.07;4.13;;;21.30;97.20;;;;;;1731236;28;20207;-78
2023/05/27 08:00:58;;;;;;;9.63;5.15;;;21.40;97.20;;;;;;1730742;28;20278;-78
2023/05/27 08:01:49;;;;;;;10.43;4.95;;;21.40;97.20;;;;;;1729737;28;20208;-79
2023/05/27 08:02:43;;;;;;;9.93;5.13;;;21.50;97.20;;;;;;1728062;28;20207;-79
2023/05/27 08:03:33;;;;;;;9.77;5.00;;;21.50;97.20;;;;;;1728345;28;20204;-79
2023/05/27 08:04:25;;;;;;;6.20;4.40;;;21.60;97.20;;;;;;1728984;28;20267;-79
2023/05/27 08:05:17;;;;;;;10.43;5.38;;;21.60;97.20;;;;;;1728432;28;20208;-79
2023/05/27 08:06:09;;;;;;;9.13;5.00;;;21.70;97.20;;;;;;1728416;28;20232;-78
2023/05/27 08:07:00;;;;;;;9.55;4.60;;;21.80;97.20;;;;;;1728137;28;20210;-79
2023/05/27 08:07:51;;;;;;;8.03;5.10;;;21.80;97.20;;;;;;1728323;28;20648;-78
2023/05/27 08:08:42;;;;;;;10.02;4.95;;;21.90;97.20;;;;;;1728178;28;20851;-79
2023/05/27 08:09:34;;;;;;;8.77;5.30;;;21.90;97.20;;;;;;1728319;28;20559;-79
2023/05/27 08:10:25;;;;;;;10.93;6.05;;;22.00;97.20;;;;;;1728172;28;20200;-79
2023/05/27 08:11:16;;;;;;;7.30;5.03;;;22.00;97.20;;;;;;1728158;28;20251;-79
2023/05/27 08:12:07;;;;;;;8.20;5.13;;;22.10;97.20;;;;;;1727959;28;20201;-79
2023/05/27 08:12:59;;;;;;;8.17;5.20;;;22.10;97.20;;;;;;1727763;28;20196;-79
2023/05/27 08:13:50;;;;;;;9.85;5.43;;;22.10;97.20;;;;;;1728044;28;20466;-79
2023/05/27 08:14:41;;;;;;;8.80;4.90;;;22.20;97.20;;;;;;1728611;28;20204;-79
2023/05/27 08:15:32;;;;;;;9.68;5.15;;;22.20;97.20;;;;;;1728300;28;20586;-79
2023/05/27 08:16:24;;;;;;;7.83;5.10;;;22.20;97.20;;;;;;1728183;28;20566;-79
2023/05/27 08:17:15;;;;;;;7.15;5.30;;;22.30;97.20;;;;;;1728933;28;20219;-79
2023/05/27 08:18:07;;;;;;;11.10;5.70;;;22.30;97.20;;;;;;1728393;28;20207;-79
2023/05/27 08:18:57;;;;;;;10.05;4.88;;;22.30;97.20;;;;;;1731819;28;20227;-79
2023/05/27 08:19:49;;;;;;;8.90;5.30;;;22.30;97.20;;;;;;1730198;28;20211;-79
2023/05/27 08:20:41;;;;;;;8.80;5.25;;;22.30;97.20;;;;;;1728212;28;20228;-79
2023/05/27 08:21:33;;;;;;;8.77;5.65;;;22.30;97.20;;;;;;1728950;28;20231;-78
2023/05/27 08:22:24;;;;;;;11.50;5.25;;;22.40;97.20;;;;;;1727715;28;20799;-79
2023/05/27 08:23:15;;;;;;;8.77;5.00;;;22.40;97.20;;;;;;1729145;28;20677;-79
2023/05/27 08:24:06;;;;;;;10.00;5.72;;;22.40;97.20;;;;;;1727896;28;20660;-79
2023/05/27 08:24:58;;;;;;;10.50;5.17;;;22.40;97.20;;;;;;1727555;28;20580;-78
2023/05/27 08:25:49;;;;;;;15.88;6.68;;;22.40;97.20;;;;;;1727623;28;20205;-78
2023/05/27 08:26:40;;;;;;;8.43;5.43;;;22.50;97.20;;;;;;1727251;28;20295;-78
2023/05/27 08:27:46;;;;;;;10.57;5.53;;;22.50;97.20;;;;;;1728017;28;20208;-78
2023/05/27 08:28:38;;;;;;;15.60;6.22;;;22.50;97.20;;;;;;1727483;28;20235;-78
2023/05/27 08:29:30;;;;;;;8.80;5.00;;;22.50;97.20;;;;;;1727654;28;20200;-78
2023/05/27 08:30:22;;;;;;;10.10;5.85;;;22.60;97.20;;;;;;1727857;28;20584;-78
2023/05/27 08:31:12;;;;;;;8.98;4.93;;;22.60;97.20;;;;;;1727974;28;20204;-79
2023/05/27 08:32:04;;;;;;;14.63;5.30;;;22.70;97.20;;;;;;1727700;28;20284;-78
2023/05/27 08:32:55;;;;;;;9.30;5.30;;;22.70;97.20;;;;;;1727489;28;20212;-78
2023/05/27 08:33:47;;;;;;;8.40;5.00;;;22.80;97.20;;;;;;1728057;28;20204;-78
2023/05/27 08:34:38;;;;;;;12.48;6.00;;;22.80;97.20;;;;;;1727535;28;20212;-78
2023/05/27 08:35:30;;;;;;;11.27;5.63;;;22.90;97.20;;;;;;1728255;28;20556;-78
2023/05/27 08:36:22;;;;;;;8.80;5.68;;;22.90;97.20;;;;;;1729103;28;20200;-78
2023/05/27 08:37:14;;;;;;;8.40;5.10;;;23.00;97.20;;;;;;1729309;28;20279;-78
2023/05/27 08:38:05;;;;;;;10.38;4.90;;;23.00;97.20;;;;;;1729037;28;20221;-78
2023/05/27 08:38:57;;;;;;;14.50;6.10;;;23.10;97.20;;;;;;1728816;28;20306;-78
2023/05/27 08:39:48;;;;;;;9.38;5.22;;;23.10;97.20;;;;;;1729134;28;20215;-77
2023/05/27 08:40:39;;;;;;;17.43;6.30;;;23.20;97.20;;;;;;1728632;28;20303;-75
2023/05/27 08:41:31;;;;;;;20.60;6.25;;;23.20;97.20;;;;;;1728600;28;20200;-75
2023/05/27 08:42:23;;;;;;;10.88;6.18;;;23.20;97.20;;;;;;1728370;28;20204;-75
2023/05/27 08:43:14;;;;;;;16.17;6.13;;;23.30;97.20;;;;;;1728712;28;20204;-75
2023/05/27 08:44:06;;;;;;;14.45;5.97;;;23.30;97.20;;;;;;1728564;28;20196;-75
2023/05/27 08:44:57;;;;;;;15.80;6.28;;;23.30;97.20;;;;;;1729734;28;20204;-75
2023/05/27 08:45:49;;;;;;;16.55;5.90;;;23.40;97.20;;;;;;1728840;28;20208;-75
2023/05/27 08:46:41;;;;;;;11.38;5.38;;;23.40;97.20;;;;;;1728551;28;20672;-75
2023/05/27 08:47:33;;;;;;;18.33;6.38;;;23.50;97.20;;;;;;1728744;28;20612;-75
2023/05/27 08:48:24;;;;;;;27.30;6.43;;;23.50;97.20;;;;;;1728657;28;20200;-76
2023/05/27 08:49:16;;;;;;;14.27;5.72;;;23.60;97.20;;;;;;1728689;28;20208;-75
2023/05/27 08:50:08;;;;;;;12.00;5.30;;;23.70;97.20;;;;;;1728726;28;20576;-75
2023/05/27 08:51:01;;;;;;;8.95;5.47;;;23.70;97.20;;;;;;1728609;28;20220;-75
2023/05/27 08:51:56;;;;;;;8.85;5.45;;;23.80;97.20;;;;;;1728650;28;20204;-75
2023/05/27 08:52:53;;;;;;;12.40;5.78;;;23.80;97.20;;;;;;1728321;28;20668;-75
2023/05/27 08:53:43;;;;;;;23.50;5.70;;;23.90;97.20;;;;;;1728335;28;20568;-75
2023/05/27 08:54:36;;;;;;;13.50;5.87;;;23.90;97.20;;;;;;1728681;28;20564;-75
2023/05/27 08:55:28;;;;;;;12.35;5.82;;;24.00;97.20;;;;;;1728661;28;20204;-75
2023/05/27 08:56:22;;;;;;;10.07;5.35;;;24.00;97.20;;;;;;1728626;28;20242;-75
2023/05/27 08:57:15;;;;;;;8.75;5.75;;;24.10;97.20;;;;;;1728591;28;20545;-76
2023/05/27 08:58:07;;;;;;;14.15;6.10;;;24.10;97.20;;;;;;1728590;28;20200;-76
2023/05/27 08:58:59;;;;;;;10.30;5.65;;;24.10;97.20;;;;;;1728735;28;20219;-75
2023/05/27 08:59:51;;;;;;;10.65;5.93;;;24.10;97.20;;;;;;1728703;28;20279;-75
2023/05/27 09:00:43;;;;;;;12.30;5.97;;;24.10;97.20;;;;;;1728498;28;20574;-75
2023/05/27 09:01:35;;;;;;;9.40;5.68;;;24.20;97.20;;;;;;1728702;28;20212;-76
2023/05/27 09:02:28;;;;;;;13.52;5.75;;;24.20;97.20;;;;;;1728243;28;20197;-77
2023/05/27 09:03:20;;;;;;;13.10;5.60;;;24.30;97.20;;;;;;1728561;28;20338;-76
2023/05/27 09:04:11;;;;;;;14.45;5.30;;;24.30;97.20;;;;;;1728632;28;20204;-76
2023/05/27 09:05:02;;;;;;;9.70;4.93;;;24.40;97.20;;;;;;1728514;28;20200;-76
2023/05/27 09:05:54;;;;;;;8.77;5.60;;;24.40;97.20;;;;;;1728624;28;20204;-75
2023/05/27 09:06:46;;;;;;;9.65;5.60;;;24.50;97.20;;;;;;1728521;28;20262;-77
2023/05/27 09:07:38;;;;;;;8.55;4.97;;;24.50;97.20;;;;;;1728551;28;20204;-76
2023/05/27 09:08:31;;;;;;;15.48;5.88;;;24.50;97.20;;;;;;1728535;28;20212;-76
2023/05/27 09:09:21;;;;;;;27.35;6.03;;;24.60;97.20;;;;;;1728283;28;20208;-76
2023/05/27 09:10:13;;;;;;;21.87;6.50;;;24.70;97.20;;;;;;1728465;28;20196;-76
2023/05/27 09:11:07;;;;;;;20.27;7.82;;;24.70;97.20;;;;;;1728477;28;20196;-76
2023/05/27 09:12:00;;;;;;;14.02;6.95;;;24.80;97.20;;;;;;1728489;28;20196;-76
2023/05/27 09:12:51;;;;;;;16.33;7.47;;;24.80;97.20;;;;;;1728174;28;20574;-76
2023/05/27 09:13:43;;;;;;;29.87;7.70;;;24.90;97.20;;;;;;1728433;28;20232;-76
2023/05/27 09:14:37;;;;;;;27.50;6.97;;;24.90;97.20;;;;;;1728456;28;20687;-76
2023/05/27 09:15:30;;;;;;;12.68;6.15;;;25.00;97.20;;;;;;1728440;28;20566;-76
2023/05/27 09:16:22;;;;;;;15.02;6.35;;;25.10;97.20;;;;;;1728463;28;20259;-76
2023/05/27 09:17:13;;;;;;;15.63;6.45;;;25.10;97.20;;;;;;1728436;28;20204;-76
2023/05/27 09:18:05;;;;;;;15.88;6.65;;;25.20;97.20;;;;;;1728436;28;20204;-76
2023/05/27 09:18:57;;;;;;;12.70;6.20;;;25.20;97.20;;;;;;1728413;28;20213;-76
2023/05/27 09:19:50;;;;;;;13.57;5.95;;;25.20;97.20;;;;;;1728467;28;20216;-76
2023/05/27 09:20:41;;;;;;;23.90;6.22;;;25.20;97.20;;;;;;1728383;28;20220;-76
2023/05/27 09:21:32;;;;;;;14.27;5.70;;;25.30;97.20;;;;;;1728439;28;20207;-76
2023/05/27 09:22:26;;;;;;;8.75;5.88;;;25.30;97.20;;;;;;1728132;28;20200;-76
2023/05/27 09:23:18;;;;;;;19.77;6.95;;;25.30;97.20;;;;;;1728427;28;20200;-76
2023/05/27 09:24:10;;;;;;;16.92;6.13;;;25.30;97.20;;;;;;1728319;28;20221;-76
2023/05/27 09:25:01;;;;;;;15.00;5.75;;;25.40;97.20;;;;;;1728367;28;20712;-77
2023/05/27 09:25:53;;;;;;;9.83;5.37;;;25.40;97.20;;;;;;1728082;28;20571;-76
2023/05/27 09:26:44;;;;;;;11.93;5.80;;;25.40;97.20;;;;;;1728409;28;20217;-76